sensor_id;sensor_type;location;lat;lon;timestamp;pressure;altitude;pressure_sealevel;temperature
11792;BMP180;5953;52.372;9.918;2022-12-13T00:01:29;100497.00;;;-1.30
11792;BMP180;5953;52.372;9.918;2022-12-13T00:04:00;100502.00;;;-1.30
11792;BMP180;5953;52.372;9.918;2022-12-13T00:06:28;100511.00;;;-1.30
11792;BMP180;5953;52.372;9.918;2022-12-13T00:08:58;100510.00;;;-1.30
11792;BMP180;5953;52.372;9.918;2022-12-13T00:11:26;100465.00;;;-1.30
11792;BMP180;5953;52.372;9.918;2022-12-13T00:13:54;100505.00;;;-1.30
11792;BMP180;5953;52.372;9.918;2022-12-13T00:16:23;100449.00;;;-1.40
11792;BMP180;5953;52.372;9.918;2022-12-13T00:18:54;100468.00;;;-1.50
11792;BMP180;5953;52.372;9.918;2022-12-13T00:21:24;100486.00;;;-1.40
11792;BMP180;5953;52.372;9.918;2022-12-13T00:23:53;100490.00;;;-1.50
11792;BMP180;5953;52.372;9.918;2022-12-13T00:26:23;100488.00;;;-1.30
11792;BMP180;5953;52.372;9.918;2022-12-13T00:28:52;100484.00;;;-1.40
11792;BMP180;5953;52.372;9.918;2022-12-13T00:31:21;100480.00;;;-1.50
11792;BMP180;5953;52.372;9.918;2022-12-13T00:34:09;100477.00;;;-1.60
11792;BMP180;5953;52.372;9.918;2022-12-13T00:36:37;100478.00;;;-1.60
11792;BMP180;5953;52.372;9.918;2022-12-13T00:39:04;100480.00;;;-1.60
11792;BMP180;5953;52.372;9.918;2022-12-13T00:41:34;100469.00;;;-1.70
11792;BMP180;5953;52.372;9.918;2022-12-13T00:44:03;100470.00;;;-1.60
11792;BMP180;5953;52.372;9.918;2022-12-13T00:46:31;100469.00;;;-1.60
11792;BMP180;5953;52.372;9.918;2022-12-13T00:49:00;100477.00;;;-1.60
11792;BMP180;5953;52.372;9.918;2022-12-13T00:51:29;100471.00;;;-1.60
11792;BMP180;5953;52.372;9.918;2022-12-13T00:53:58;100460.00;;;-1.60
11792;BMP180;5953;52.372;9.918;2022-12-13T00:56:27;100473.00;;;-1.60
11792;BMP180;5953;52.372;9.918;2022-12-13T00:58:57;100462.00;;;-1.60
11792;BMP180;5953;52.372;9.918;2022-12-13T01:01:26;100433.00;;;-1.60
11792;BMP180;5953;52.372;9.918;2022-12-13T01:03:56;100454.00;;;-1.70
11792;BMP180;5953;52.372;9.918;2022-12-13T01:06:28;100473.00;;;-1.60
11792;BMP180;5953;52.372;9.918;2022-12-13T01:08:59;100451.00;;;-1.60
11792;BMP180;5953;52.372;9.918;2022-12-13T01:11:27;100447.00;;;-1.60
11792;BMP180;5953;52.372;9.918;2022-12-13T01:13:56;100439.00;;;-1.50
11792;BMP180;5953;52.372;9.918;2022-12-13T01:16:24;100460.00;;;-1.50
11792;BMP180;5953;52.372;9.918;2022-12-13T01:18:52;100448.00;;;-1.50
11792;BMP180;5953;52.372;9.918;2022-12-13T01:21:21;100439.00;;;-1.50
11792;BMP180;5953;52.372;9.918;2022-12-13T01:23:49;100467.00;;;-1.60
11792;BMP180;5953;52.372;9.918;2022-12-13T01:26:20;100456.00;;;-1.50
11792;BMP180;5953;52.372;9.918;2022-12-13T01:28:48;100465.00;;;-1.60
11792;BMP180;5953;52.372;9.918;2022-12-13T01:31:19;100449.00;;;-1.60
11792;BMP180;5953;52.372;9.918;2022-12-13T01:33:47;100457.00;;;-1.70
11792;BMP180;5953;52.372;9.918;2022-12-13T01:36:17;100470.00;;;-1.60
11792;BMP180;5953;52.372;9.918;2022-12-13T01:38:53;100382.00;;;-1.80
11792;BMP180;5953;52.372;9.918;2022-12-13T01:41:25;100450.00;;;-1.90
11792;BMP180;5953;52.372;9.918;2022-12-13T01:43:56;100457.00;;;-1.90
11792;BMP180;5953;52.372;9.918;2022-12-13T01:46:28;100423.00;;;-1.90
11792;BMP180;5953;52.372;9.918;2022-12-13T01:49:01;100426.00;;;-1.90
11792;BMP180;5953;52.372;9.918;2022-12-13T01:51:34;100435.00;;;-1.90
11792;BMP180;5953;52.372;9.918;2022-12-13T01:54:05;100446.00;;;-1.90
11792;BMP180;5953;52.372;9.918;2022-12-13T01:56:40;100447.00;;;-2.00
11792;BMP180;5953;52.372;9.918;2022-12-13T01:59:10;100423.00;;;-2.00
11792;BMP180;5953;52.372;9.918;2022-12-13T02:01:40;100455.00;;;-2.00
11792;BMP180;5953;52.372;9.918;2022-12-13T02:04:08;100442.00;;;-2.10
11792;BMP180;5953;52.372;9.918;2022-12-13T02:06:38;100454.00;;;-2.30
11792;BMP180;5953;52.372;9.918;2022-12-13T02:09:08;100454.00;;;-2.20
11792;BMP180;5953;52.372;9.918;2022-12-13T02:11:38;100452.00;;;-2.00
11792;BMP180;5953;52.372;9.918;2022-12-13T02:14:07;100444.00;;;-2.20
11792;BMP180;5953;52.372;9.918;2022-12-13T02:16:44;100464.00;;;-2.20
11792;BMP180;5953;52.372;9.918;2022-12-13T02:19:48;100462.00;;;-2.20
11792;BMP180;5953;52.372;9.918;2022-12-13T02:22:32;100469.00;;;-2.30
11792;BMP180;5953;52.372;9.918;2022-12-13T02:28:16;100460.00;;;-2.20
11792;BMP180;5953;52.372;9.918;2022-12-13T02:31:03;100428.00;;;-2.20
11792;BMP180;5953;52.372;9.918;2022-12-13T02:33:45;100450.00;;;-2.10
11792;BMP180;5953;52.372;9.918;2022-12-13T02:36:22;100448.00;;;-2.00
11792;BMP180;5953;52.372;9.918;2022-12-13T02:39:06;100431.00;;;-2.10
11792;BMP180;5953;52.372;9.918;2022-12-13T02:41:39;100449.00;;;-2.00
11792;BMP180;5953;52.372;9.918;2022-12-13T02:44:13;100439.00;;;-2.00
11792;BMP180;5953;52.372;9.918;2022-12-13T02:46:54;100431.00;;;-1.90
11792;BMP180;5953;52.372;9.918;2022-12-13T02:49:24;100434.00;;;-1.90
11792;BMP180;5953;52.372;9.918;2022-12-13T02:51:55;100443.00;;;-2.00
11792;BMP180;5953;52.372;9.918;2022-12-13T02:54:24;100434.00;;;-1.90
11792;BMP180;5953;52.372;9.918;2022-12-13T02:56:53;100430.00;;;-1.90
11792;BMP180;5953;52.372;9.918;2022-12-13T02:59:23;100414.00;;;-1.90
11792;BMP180;5953;52.372;9.918;2022-12-13T03:02:04;100426.00;;;-2.00
11792;BMP180;5953;52.372;9.918;2022-12-13T03:04:43;100407.00;;;-2.20
11792;BMP180;5953;52.372;9.918;2022-12-13T03:07:37;100427.00;;;-2.30
11792;BMP180;5953;52.372;9.918;2022-12-13T03:10:10;100424.00;;;-2.40
11792;BMP180;5953;52.372;9.918;2022-12-13T03:12:44;100425.00;;;-2.30
11792;BMP180;5953;52.372;9.918;2022-12-13T03:15:38;100413.00;;;-2.20
11792;BMP180;5953;52.372;9.918;2022-12-13T03:18:13;100420.00;;;-2.00
11792;BMP180;5953;52.372;9.918;2022-12-13T03:20:44;100404.00;;;-2.00
11792;BMP180;5953;52.372;9.918;2022-12-13T03:23:12;100433.00;;;-2.00
11792;BMP180;5953;52.372;9.918;2022-12-13T03:25:41;100435.00;;;-1.90
11792;BMP180;5953;52.372;9.918;2022-12-13T03:28:08;100430.00;;;-2.00
11792;BMP180;5953;52.372;9.918;2022-12-13T03:30:38;100426.00;;;-2.00
11792;BMP180;5953;52.372;9.918;2022-12-13T03:33:06;100420.00;;;-1.90
11792;BMP180;5953;52.372;9.918;2022-12-13T03:35:35;100425.00;;;-2.00
11792;BMP180;5953;52.372;9.918;2022-12-13T03:38:13;100419.00;;;-1.90
11792;BMP180;5953;52.372;9.918;2022-12-13T03:40:49;100397.00;;;-1.80
11792;BMP180;5953;52.372;9.918;2022-12-13T03:43:17;100413.00;;;-1.80
11792;BMP180;5953;52.372;9.918;2022-12-13T03:45:49;100392.00;;;-1.80
11792;BMP180;5953;52.372;9.918;2022-12-13T03:48:25;100416.00;;;-1.70
11792;BMP180;5953;52.372;9.918;2022-12-13T03:50:55;100405.00;;;-1.80
11792;BMP180;5953;52.372;9.918;2022-12-13T03:53:23;100406.00;;;-1.90
11792;BMP180;5953;52.372;9.918;2022-12-13T03:56:00;100406.00;;;-1.70
11792;BMP180;5953;52.372;9.918;2022-12-13T03:58:28;100400.00;;;-1.70
11792;BMP180;5953;52.372;9.918;2022-12-13T04:01:03;100412.00;;;-1.60
11792;BMP180;5953;52.372;9.918;2022-12-13T04:03:31;100409.00;;;-1.60
11792;BMP180;5953;52.372;9.918;2022-12-13T04:06:00;100411.00;;;-1.60
11792;BMP180;5953;52.372;9.918;2022-12-13T04:08:28;100406.00;;;-1.50
11792;BMP180;5953;52.372;9.918;2022-12-13T04:10:56;100407.00;;;-1.60
11792;BMP180;5953;52.372;9.918;2022-12-13T04:13:24;100390.00;;;-1.60
11792;BMP180;5953;52.372;9.918;2022-12-13T04:16:00;100392.00;;;-1.70
11792;BMP180;5953;52.372;9.918;2022-12-13T04:18:28;100392.00;;;-1.80
11792;BMP180;5953;52.372;9.918;2022-12-13T04:20:56;100407.00;;;-1.80
11792;BMP180;5953;52.372;9.918;2022-12-13T04:23:25;100419.00;;;-1.80
11792;BMP180;5953;52.372;9.918;2022-12-13T04:25:53;100417.00;;;-1.80
11792;BMP180;5953;52.372;9.918;2022-12-13T04:28:21;100418.00;;;-1.70
11792;BMP180;5953;52.372;9.918;2022-12-13T04:30:49;100417.00;;;-1.90
11792;BMP180;5953;52.372;9.918;2022-12-13T04:33:19;100407.00;;;-2.00
11792;BMP180;5953;52.372;9.918;2022-12-13T04:35:47;100413.00;;;-2.00
11792;BMP180;5953;52.372;9.918;2022-12-13T04:38:15;100408.00;;;-2.00
11792;BMP180;5953;52.372;9.918;2022-12-13T04:40:45;100389.00;;;-2.00
11792;BMP180;5953;52.372;9.918;2022-12-13T04:43:12;100374.00;;;-2.10
11792;BMP180;5953;52.372;9.918;2022-12-13T04:45:40;100416.00;;;-2.10
11792;BMP180;5953;52.372;9.918;2022-12-13T04:48:08;100393.00;;;-2.00
11792;BMP180;5953;52.372;9.918;2022-12-13T04:50:36;100412.00;;;-2.00
11792;BMP180;5953;52.372;9.918;2022-12-13T04:53:04;100422.00;;;-2.00
11792;BMP180;5953;52.372;9.918;2022-12-13T04:55:31;100418.00;;;-2.00
11792;BMP180;5953;52.372;9.918;2022-12-13T04:58:00;100369.00;;;-2.10
11792;BMP180;5953;52.372;9.918;2022-12-13T05:00:28;100419.00;;;-2.10
11792;BMP180;5953;52.372;9.918;2022-12-13T05:02:56;100415.00;;;-2.10
11792;BMP180;5953;52.372;9.918;2022-12-13T05:05:24;100405.00;;;-2.30
11792;BMP180;5953;52.372;9.918;2022-12-13T05:07:52;100407.00;;;-2.30
11792;BMP180;5953;52.372;9.918;2022-12-13T05:10:19;100401.00;;;-2.30
11792;BMP180;5953;52.372;9.918;2022-12-13T05:13:05;100406.00;;;-2.20
11792;BMP180;5953;52.372;9.918;2022-12-13T05:15:33;100410.00;;;-2.30
11792;BMP180;5953;52.372;9.918;2022-12-13T05:18:02;100395.00;;;-2.20
11792;BMP180;5953;52.372;9.918;2022-12-13T05:20:37;100391.00;;;-2.30
11792;BMP180;5953;52.372;9.918;2022-12-13T05:23:04;100390.00;;;-2.30
11792;BMP180;5953;52.372;9.918;2022-12-13T05:25:32;100381.00;;;-2.30
11792;BMP180;5953;52.372;9.918;2022-12-13T05:28:04;100380.00;;;-2.40
11792;BMP180;5953;52.372;9.918;2022-12-13T05:30:53;100363.00;;;-2.40
11792;BMP180;5953;52.372;9.918;2022-12-13T05:33:22;100373.00;;;-2.30
11792;BMP180;5953;52.372;9.918;2022-12-13T05:35:51;100334.00;;;-2.40
11792;BMP180;5953;52.372;9.918;2022-12-13T05:38:25;100394.00;;;-2.40
11792;BMP180;5953;52.372;9.918;2022-12-13T05:40:53;100392.00;;;-2.40
11792;BMP180;5953;52.372;9.918;2022-12-13T05:43:22;100365.00;;;-2.30
11792;BMP180;5953;52.372;9.918;2022-12-13T05:46:08;100365.00;;;-2.30
11792;BMP180;5953;52.372;9.918;2022-12-13T05:48:36;100380.00;;;-2.30
11792;BMP180;5953;52.372;9.918;2022-12-13T05:51:04;100361.00;;;-2.40
11792;BMP180;5953;52.372;9.918;2022-12-13T05:53:37;100381.00;;;-2.20
11792;BMP180;5953;52.372;9.918;2022-12-13T05:56:06;100387.00;;;-2.10
11792;BMP180;5953;52.372;9.918;2022-12-13T05:58:37;100394.00;;;-2.00
11792;BMP180;5953;52.372;9.918;2022-12-13T06:01:06;100388.00;;;-2.00
11792;BMP180;5953;52.372;9.918;2022-12-13T06:03:35;100389.00;;;-2.00
11792;BMP180;5953;52.372;9.918;2022-12-13T06:06:03;100391.00;;;-2.10
11792;BMP180;5953;52.372;9.918;2022-12-13T06:08:32;100384.00;;;-2.10
11792;BMP180;5953;52.372;9.918;2022-12-13T06:11:01;100399.00;;;-2.10
11792;BMP180;5953;52.372;9.918;2022-12-13T06:13:39;100392.00;;;-2.10
11792;BMP180;5953;52.372;9.918;2022-12-13T06:16:10;100402.00;;;-2.10
11792;BMP180;5953;52.372;9.918;2022-12-13T06:18:50;100393.00;;;-2.20
11792;BMP180;5953;52.372;9.918;2022-12-13T06:21:28;100384.00;;;-2.10
11792;BMP180;5953;52.372;9.918;2022-12-13T06:24:11;100393.00;;;-2.10
11792;BMP180;5953;52.372;9.918;2022-12-13T06:26:39;100394.00;;;-2.00
11792;BMP180;5953;52.372;9.918;2022-12-13T06:29:08;100394.00;;;-2.20
11792;BMP180;5953;52.372;9.918;2022-12-13T06:31:36;100395.00;;;-2.10
11792;BMP180;5953;52.372;9.918;2022-12-13T06:34:03;100399.00;;;-2.10
11792;BMP180;5953;52.372;9.918;2022-12-13T06:36:41;100407.00;;;-2.00
11792;BMP180;5953;52.372;9.918;2022-12-13T06:39:08;100401.00;;;-2.00
11792;BMP180;5953;52.372;9.918;2022-12-13T06:41:36;100398.00;;;-2.00
11792;BMP180;5953;52.372;9.918;2022-12-13T06:44:04;100386.00;;;-1.90
11792;BMP180;5953;52.372;9.918;2022-12-13T06:46:33;100386.00;;;-1.90
11792;BMP180;5953;52.372;9.918;2022-12-13T06:49:06;100391.00;;;-1.90
11792;BMP180;5953;52.372;9.918;2022-12-13T06:51:34;100395.00;;;-2.00
11792;BMP180;5953;52.372;9.918;2022-12-13T06:54:02;100401.00;;;-2.00
11792;BMP180;5953;52.372;9.918;2022-12-13T06:56:30;100406.00;;;-2.00
11792;BMP180;5953;52.372;9.918;2022-12-13T06:58:58;100394.00;;;-2.00
11792;BMP180;5953;52.372;9.918;2022-12-13T07:01:28;100424.00;;;-2.00
11792;BMP180;5953;52.372;9.918;2022-12-13T07:04:04;100416.00;;;-2.10
11792;BMP180;5953;52.372;9.918;2022-12-13T07:06:54;100394.00;;;-2.20
11792;BMP180;5953;52.372;9.918;2022-12-13T07:09:27;100396.00;;;-2.10
11792;BMP180;5953;52.372;9.918;2022-12-13T07:11:56;100409.00;;;-2.10
11792;BMP180;5953;52.372;9.918;2022-12-13T07:14:24;100415.00;;;-2.10
11792;BMP180;5953;52.372;9.918;2022-12-13T07:16:52;100426.00;;;-2.10
11792;BMP180;5953;52.372;9.918;2022-12-13T07:19:30;100431.00;;;-2.00
11792;BMP180;5953;52.372;9.918;2022-12-13T07:22:07;100420.00;;;-2.10
11792;BMP180;5953;52.372;9.918;2022-12-13T07:24:35;100422.00;;;-2.20
11792;BMP180;5953;52.372;9.918;2022-12-13T07:27:03;100422.00;;;-2.20
11792;BMP180;5953;52.372;9.918;2022-12-13T07:29:31;100429.00;;;-2.30
11792;BMP180;5953;52.372;9.918;2022-12-13T07:31:59;100405.00;;;-2.30
11792;BMP180;5953;52.372;9.918;2022-12-13T07:34:27;100374.00;;;-2.20
11792;BMP180;5953;52.372;9.918;2022-12-13T07:36:57;100416.00;;;-2.10
11792;BMP180;5953;52.372;9.918;2022-12-13T07:39:25;100424.00;;;-2.10
11792;BMP180;5953;52.372;9.918;2022-12-13T07:41:53;100420.00;;;-2.20
11792;BMP180;5953;52.372;9.918;2022-12-13T07:44:22;100430.00;;;-2.20
11792;BMP180;5953;52.372;9.918;2022-12-13T07:46:50;100444.00;;;-2.30
11792;BMP180;5953;52.372;9.918;2022-12-13T07:49:18;100435.00;;;-2.10
11792;BMP180;5953;52.372;9.918;2022-12-13T07:51:46;100430.00;;;-2.20
11792;BMP180;5953;52.372;9.918;2022-12-13T07:54:16;100427.00;;;-2.30
11792;BMP180;5953;52.372;9.918;2022-12-13T07:56:44;100422.00;;;-2.30
11792;BMP180;5953;52.372;9.918;2022-12-13T07:59:12;100419.00;;;-2.30
11792;BMP180;5953;52.372;9.918;2022-12-13T08:01:40;100430.00;;;-2.20
11792;BMP180;5953;52.372;9.918;2022-12-13T08:04:08;100430.00;;;-2.20
11792;BMP180;5953;52.372;9.918;2022-12-13T08:06:36;100431.00;;;-2.10
11792;BMP180;5953;52.372;9.918;2022-12-13T08:09:05;100421.00;;;-2.20
11792;BMP180;5953;52.372;9.918;2022-12-13T08:11:34;100440.00;;;-2.20
11792;BMP180;5953;52.372;9.918;2022-12-13T08:14:02;100448.00;;;-2.10
11792;BMP180;5953;52.372;9.918;2022-12-13T08:16:30;100431.00;;;-2.00
11792;BMP180;5953;52.372;9.918;2022-12-13T08:18:58;100439.00;;;-2.10
11792;BMP180;5953;52.372;9.918;2022-12-13T08:21:33;100433.00;;;-2.10
11792;BMP180;5953;52.372;9.918;2022-12-13T08:24:22;100427.00;;;-1.90
11792;BMP180;5953;52.372;9.918;2022-12-13T08:26:51;100431.00;;;-1.90
11792;BMP180;5953;52.372;9.918;2022-12-13T08:29:19;100437.00;;;-1.90
11792;BMP180;5953;52.372;9.918;2022-12-13T08:31:59;100434.00;;;-1.70
11792;BMP180;5953;52.372;9.918;2022-12-13T08:34:27;100439.00;;;-1.70
11792;BMP180;5953;52.372;9.918;2022-12-13T08:36:55;100416.00;;;-1.50
11792;BMP180;5953;52.372;9.918;2022-12-13T08:39:28;100439.00;;;-1.70
11792;BMP180;5953;52.372;9.918;2022-12-13T08:42:01;100393.00;;;-1.70
11792;BMP180;5953;52.372;9.918;2022-12-13T08:44:44;100436.00;;;-1.70
11792;BMP180;5953;52.372;9.918;2022-12-13T08:47:12;100438.00;;;-1.70
11792;BMP180;5953;52.372;9.918;2022-12-13T08:49:52;100444.00;;;-1.70
11792;BMP180;5953;52.372;9.918;2022-12-13T08:52:20;100450.00;;;-1.60
11792;BMP180;5953;52.372;9.918;2022-12-13T08:54:49;100435.00;;;-1.70
11792;BMP180;5953;52.372;9.918;2022-12-13T08:57:18;100426.00;;;-1.70
11792;BMP180;5953;52.372;9.918;2022-12-13T08:59:46;100434.00;;;-1.60
11792;BMP180;5953;52.372;9.918;2022-12-13T09:02:14;100425.00;;;-1.60
11792;BMP180;5953;52.372;9.918;2022-12-13T09:04:43;100409.00;;;-1.50
11792;BMP180;5953;52.372;9.918;2022-12-13T09:07:11;100442.00;;;-1.50
11792;BMP180;5953;52.372;9.918;2022-12-13T09:09:39;100422.00;;;-1.40
11792;BMP180;5953;52.372;9.918;2022-12-13T09:12:07;100433.00;;;-1.30
11792;BMP180;5953;52.372;9.918;2022-12-13T09:14:56;100417.00;;;-1.00
11792;BMP180;5953;52.372;9.918;2022-12-13T09:17:28;100448.00;;;-1.00
11792;BMP180;5953;52.372;9.918;2022-12-13T09:20:04;100442.00;;;-1.00
11792;BMP180;5953;52.372;9.918;2022-12-13T09:22:53;100436.00;;;-0.90
11792;BMP180;5953;52.372;9.918;2022-12-13T09:25:28;100438.00;;;-0.70
11792;BMP180;5953;52.372;9.918;2022-12-13T09:28:04;100442.00;;;-0.60
11792;BMP180;5953;52.372;9.918;2022-12-13T09:30:33;100443.00;;;-0.60
11792;BMP180;5953;52.372;9.918;2022-12-13T09:33:01;100426.00;;;-0.50
11792;BMP180;5953;52.372;9.918;2022-12-13T09:35:49;100440.00;;;-0.70
11792;BMP180;5953;52.372;9.918;2022-12-13T09:38:18;100441.00;;;-0.50
11792;BMP180;5953;52.372;9.918;2022-12-13T09:40:47;100445.00;;;-0.30
11792;BMP180;5953;52.372;9.918;2022-12-13T09:43:29;100435.00;;;-0.30
11792;BMP180;5953;52.372;9.918;2022-12-13T09:46:20;100450.00;;;-0.30
11792;BMP180;5953;52.372;9.918;2022-12-13T09:48:52;100456.00;;;-0.10
11792;BMP180;5953;52.372;9.918;2022-12-13T09:51:28;100445.00;;;0.10
11792;BMP180;5953;52.372;9.918;2022-12-13T09:54:16;100444.00;;;0.20
11792;BMP180;5953;52.372;9.918;2022-12-13T09:56:45;100435.00;;;0.20
11792;BMP180;5953;52.372;9.918;2022-12-13T09:59:17;100423.00;;;0.40
11792;BMP180;5953;52.372;9.918;2022-12-13T10:01:49;100421.00;;;0.30
11792;BMP180;5953;52.372;9.918;2022-12-13T10:04:17;100425.00;;;0.20
11792;BMP180;5953;52.372;9.918;2022-12-13T10:06:46;100426.00;;;0.30
11792;BMP180;5953;52.372;9.918;2022-12-13T10:09:18;100428.00;;;0.50
11792;BMP180;5953;52.372;9.918;2022-12-13T10:11:48;100429.00;;;0.50
11792;BMP180;5953;52.372;9.918;2022-12-13T10:14:23;100425.00;;;0.50
11792;BMP180;5953;52.372;9.918;2022-12-13T10:16:56;100426.00;;;0.50
11792;BMP180;5953;52.372;9.918;2022-12-13T10:19:30;100403.00;;;0.60
11792;BMP180;5953;52.372;9.918;2022-12-13T10:22:02;100432.00;;;0.50
11792;BMP180;5953;52.372;9.918;2022-12-13T10:24:47;100406.00;;;0.30
11792;BMP180;5953;52.372;9.918;2022-12-13T10:27:17;100411.00;;;0.50
11792;BMP180;5953;52.372;9.918;2022-12-13T10:29:59;100395.00;;;0.60
11792;BMP180;5953;52.372;9.918;2022-12-13T10:32:30;100407.00;;;0.60
11792;BMP180;5953;52.372;9.918;2022-12-13T10:35:11;100409.00;;;0.30
11792;BMP180;5953;52.372;9.918;2022-12-13T10:37:47;100408.00;;;0.60
11792;BMP180;5953;52.372;9.918;2022-12-13T10:40:26;100405.00;;;0.70
11792;BMP180;5953;52.372;9.918;2022-12-13T10:43:12;100412.00;;;0.90
11792;BMP180;5953;52.372;9.918;2022-12-13T10:45:41;100413.00;;;0.90
11792;BMP180;5953;52.372;9.918;2022-12-13T10:48:21;100409.00;;;1.20
11792;BMP180;5953;52.372;9.918;2022-12-13T10:50:59;100381.00;;;1.40
11792;BMP180;5953;52.372;9.918;2022-12-13T10:53:31;100404.00;;;1.60
11792;BMP180;5953;52.372;9.918;2022-12-13T10:56:01;100406.00;;;1.20
11792;BMP180;5953;52.372;9.918;2022-12-13T10:58:37;100402.00;;;1.40
11792;BMP180;5953;52.372;9.918;2022-12-13T11:01:09;100400.00;;;1.60
11792;BMP180;5953;52.372;9.918;2022-12-13T11:03:39;100408.00;;;1.30
11792;BMP180;5953;52.372;9.918;2022-12-13T11:06:12;100371.00;;;1.50
11792;BMP180;5953;52.372;9.918;2022-12-13T11:08:40;100394.00;;;1.60
11792;BMP180;5953;52.372;9.918;2022-12-13T11:11:09;100396.00;;;1.70
11792;BMP180;5953;52.372;9.918;2022-12-13T11:13:39;100379.00;;;1.80
11792;BMP180;5953;52.372;9.918;2022-12-13T11:16:19;100398.00;;;1.60
11792;BMP180;5953;52.372;9.918;2022-12-13T11:18:53;100378.00;;;1.30
11792;BMP180;5953;52.372;9.918;2022-12-13T11:21:23;100387.00;;;1.50
11792;BMP180;5953;52.372;9.918;2022-12-13T11:23:54;100322.00;;;1.60
11792;BMP180;5953;52.372;9.918;2022-12-13T11:26:28;100375.00;;;1.90
11792;BMP180;5953;52.372;9.918;2022-12-13T11:29:13;100371.00;;;1.90
11792;BMP180;5953;52.372;9.918;2022-12-13T11:34:39;100376.00;;;1.90
11792;BMP180;5953;52.372;9.918;2022-12-13T11:37:20;100364.00;;;1.80
11792;BMP180;5953;52.372;9.918;2022-12-13T11:39:53;100359.00;;;1.90
11792;BMP180;5953;52.372;9.918;2022-12-13T11:42:31;100348.00;;;1.90
11792;BMP180;5953;52.372;9.918;2022-12-13T11:45:06;100356.00;;;2.00
11792;BMP180;5953;52.372;9.918;2022-12-13T11:47:53;100348.00;;;1.70
11792;BMP180;5953;52.372;9.918;2022-12-13T11:50:29;100360.00;;;1.80
11792;BMP180;5953;52.372;9.918;2022-12-13T11:53:19;100363.00;;;2.10
11792;BMP180;5953;52.372;9.918;2022-12-13T11:55:54;100357.00;;;2.20
11792;BMP180;5953;52.372;9.918;2022-12-13T11:58:28;100320.00;;;2.30
11792;BMP180;5953;52.372;9.918;2022-12-13T12:01:21;100338.00;;;2.60
11792;BMP180;5953;52.372;9.918;2022-12-13T12:03:56;100337.00;;;2.70
11792;BMP180;5953;52.372;9.918;2022-12-13T12:06:31;100337.00;;;2.40
11792;BMP180;5953;52.372;9.918;2022-12-13T12:09:04;100340.00;;;2.60
11792;BMP180;5953;52.372;9.918;2022-12-13T12:11:40;100307.00;;;2.70
11792;BMP180;5953;52.372;9.918;2022-12-13T12:14:13;100336.00;;;2.90
11792;BMP180;5953;52.372;9.918;2022-12-13T12:16:47;100298.00;;;2.90
11792;BMP180;5953;52.372;9.918;2022-12-13T12:19:18;100326.00;;;2.90
11792;BMP180;5953;52.372;9.918;2022-12-13T12:22:06;100330.00;;;2.90
11792;BMP180;5953;52.372;9.918;2022-12-13T12:24:50;100330.00;;;2.70
11792;BMP180;5953;52.372;9.918;2022-12-13T12:27:27;100332.00;;;3.10
11792;BMP180;5953;52.372;9.918;2022-12-13T12:30:07;100331.00;;;3.00
11792;BMP180;5953;52.372;9.918;2022-12-13T12:32:43;100333.00;;;3.20
11792;BMP180;5953;52.372;9.918;2022-12-13T12:38:35;100317.00;;;3.20
11792;BMP180;5953;52.372;9.918;2022-12-13T12:44:04;100315.00;;;3.30
11792;BMP180;5953;52.372;9.918;2022-12-13T12:46:53;100311.00;;;3.40
11792;BMP180;5953;52.372;9.918;2022-12-13T12:50:02;100294.00;;;3.20
11792;BMP180;5953;52.372;9.918;2022-12-13T12:52:43;100318.00;;;3.50
11792;BMP180;5953;52.372;9.918;2022-12-13T12:55:20;100313.00;;;3.30
11792;BMP180;5953;52.372;9.918;2022-12-13T12:57:58;100322.00;;;3.50
11792;BMP180;5953;52.372;9.918;2022-12-13T13:00:34;100318.00;;;3.50
11792;BMP180;5953;52.372;9.918;2022-12-13T13:03:13;100301.00;;;3.50
11792;BMP180;5953;52.372;9.918;2022-12-13T13:05:55;100320.00;;;3.50
11792;BMP180;5953;52.372;9.918;2022-12-13T13:08:33;100307.00;;;3.70
11792;BMP180;5953;52.372;9.918;2022-12-13T13:11:05;100301.00;;;3.70
11792;BMP180;5953;52.372;9.918;2022-12-13T13:14:01;100308.00;;;3.70
11792;BMP180;5953;52.372;9.918;2022-12-13T13:16:33;100278.00;;;3.70
11792;BMP180;5953;52.372;9.918;2022-12-13T13:19:02;100291.00;;;3.70
11792;BMP180;5953;52.372;9.918;2022-12-13T13:21:41;100282.00;;;3.80
11792;BMP180;5953;52.372;9.918;2022-12-13T13:24:19;100245.00;;;3.90
11792;BMP180;5953;52.372;9.918;2022-12-13T13:26:52;100257.00;;;3.90
11792;BMP180;5953;52.372;9.918;2022-12-13T13:29:32;100298.00;;;3.80
11792;BMP180;5953;52.372;9.918;2022-12-13T13:32:03;100303.00;;;3.60
11792;BMP180;5953;52.372;9.918;2022-12-13T13:34:33;100305.00;;;3.60
11792;BMP180;5953;52.372;9.918;2022-12-13T13:37:03;100304.00;;;3.60
11792;BMP180;5953;52.372;9.918;2022-12-13T13:39:54;100313.00;;;3.70
11792;BMP180;5953;52.372;9.918;2022-12-13T13:42:24;100300.00;;;3.60
11792;BMP180;5953;52.372;9.918;2022-12-13T13:45:16;100280.00;;;3.50
11792;BMP180;5953;52.372;9.918;2022-12-13T13:48:06;100266.00;;;3.50
11792;BMP180;5953;52.372;9.918;2022-12-13T13:54:25;100312.00;;;3.60
11792;BMP180;5953;52.372;9.918;2022-12-13T13:57:45;100295.00;;;3.50
11792;BMP180;5953;52.372;9.918;2022-12-13T14:00:50;100304.00;;;3.50
11792;BMP180;5953;52.372;9.918;2022-12-13T14:06:56;100285.00;;;3.40
11792;BMP180;5953;52.372;9.918;2022-12-13T14:09:48;100303.00;;;3.40
11792;BMP180;5953;52.372;9.918;2022-12-13T14:12:47;100315.00;;;3.40
11792;BMP180;5953;52.372;9.918;2022-12-13T14:19:21;100313.00;;;3.70
11792;BMP180;5953;52.372;9.918;2022-12-13T14:22:26;100309.00;;;3.60
11792;BMP180;5953;52.372;9.918;2022-12-13T14:25:16;100309.00;;;3.50
11792;BMP180;5953;52.372;9.918;2022-12-13T14:27:53;100266.00;;;3.40
11792;BMP180;5953;52.372;9.918;2022-12-13T14:30:23;100298.00;;;3.60
11792;BMP180;5953;52.372;9.918;2022-12-13T14:32:55;100297.00;;;3.40
11792;BMP180;5953;52.372;9.918;2022-12-13T14:35:25;100303.00;;;3.20
11792;BMP180;5953;52.372;9.918;2022-12-13T14:37:58;100286.00;;;3.30
11792;BMP180;5953;52.372;9.918;2022-12-13T14:40:30;100295.00;;;3.40
11792;BMP180;5953;52.372;9.918;2022-12-13T14:43:00;100294.00;;;3.10
11792;BMP180;5953;52.372;9.918;2022-12-13T14:45:29;100278.00;;;3.10
11792;BMP180;5953;52.372;9.918;2022-12-13T14:47:59;100284.00;;;3.10
11792;BMP180;5953;52.372;9.918;2022-12-13T14:50:31;100285.00;;;2.90
11792;BMP180;5953;52.372;9.918;2022-12-13T14:53:00;100321.00;;;3.00
11792;BMP180;5953;52.372;9.918;2022-12-13T14:55:31;100321.00;;;3.00
11792;BMP180;5953;52.372;9.918;2022-12-13T14:58:01;100315.00;;;3.00
11792;BMP180;5953;52.372;9.918;2022-12-13T15:00:32;100311.00;;;3.10
11792;BMP180;5953;52.372;9.918;2022-12-13T15:03:02;100318.00;;;3.20
11792;BMP180;5953;52.372;9.918;2022-12-13T15:05:32;100312.00;;;3.20
11792;BMP180;5953;52.372;9.918;2022-12-13T15:08:01;100326.00;;;3.10
11792;BMP180;5953;52.372;9.918;2022-12-13T15:10:38;100296.00;;;3.20
11792;BMP180;5953;52.372;9.918;2022-12-13T15:13:24;100302.00;;;3.00